sensor_id;sensor_type;location;lat;lon;timestamp;temperature;humidity
75161;DHT22;67232;50.096;8.716;2023-07-31T00:01:08;21.40;65.10
75161;DHT22;67232;50.096;8.716;2023-07-31T00:03:36;21.30;65.70
75161;DHT22;67232;50.096;8.716;2023-07-31T00:06:02;21.10;65.70
75161;DHT22;67232;50.096;8.716;2023-07-31T00:08:29;21.00;66.50
75161;DHT22;67232;50.096;8.716;2023-07-31T00:10:55;21.10;66.20
75161;DHT22;67232;50.096;8.716;2023-07-31T00:13:20;21.10;65.80
75161;DHT22;67232;50.096;8.716;2023-07-31T00:15:46;21.00;66.20
75161;DHT22;67232;50.096;8.716;2023-07-31T00:18:14;21.00;66.10
75161;DHT22;67232;50.096;8.716;2023-07-31T00:20:39;21.00;65.60
75161;DHT22;67232;50.096;8.716;2023-07-31T00:23:05;21.10;65.80
75161;DHT22;67232;50.096;8.716;2023-07-31T00:25:30;21.20;65.50
75161;DHT22;67232;50.096;8.716;2023-07-31T00:27:56;21.10;65.80
75161;DHT22;67232;50.096;8.716;2023-07-31T00:30:21;21.00;66.00
75161;DHT22;67232;50.096;8.716;2023-07-31T00:32:47;21.00;65.80
75161;DHT22;67232;50.096;8.716;2023-07-31T00:35:13;21.20;65.50
75161;DHT22;67232;50.096;8.716;2023-07-31T00:37:38;21.10;65.60
75161;DHT22;67232;50.096;8.716;2023-07-31T00:40:07;21.10;65.10
75161;DHT22;67232;50.096;8.716;2023-07-31T00:42:35;21.10;65.60
75161;DHT22;67232;50.096;8.716;2023-07-31T00:45:00;21.00;65.70
75161;DHT22;67232;50.096;8.716;2023-07-31T00:47:26;21.10;65.40
75161;DHT22;67232;50.096;8.716;2023-07-31T00:49:54;21.10;65.60
75161;DHT22;67232;50.096;8.716;2023-07-31T00:52:20;21.00;65.90
75161;DHT22;67232;50.096;8.716;2023-07-31T00:54:46;21.00;65.60
75161;DHT22;67232;50.096;8.716;2023-07-31T00:57:14;21.10;65.30
75161;DHT22;67232;50.096;8.716;2023-07-31T00:59:41;20.90;65.40
75161;DHT22;67232;50.096;8.716;2023-07-31T01:02:07;21.00;65.70
75161;DHT22;67232;50.096;8.716;2023-07-31T01:04:33;20.90;65.80
75161;DHT22;67232;50.096;8.716;2023-07-31T01:10:11;21.00;65.40
75161;DHT22;67232;50.096;8.716;2023-07-31T01:12:41;20.90;65.50
75161;DHT22;67232;50.096;8.716;2023-07-31T01:15:11;21.00;64.80
75161;DHT22;67232;50.096;8.716;2023-07-31T01:17:43;20.90;65.00
75161;DHT22;67232;50.096;8.716;2023-07-31T01:20:21;20.90;64.90
75161;DHT22;67232;50.096;8.716;2023-07-31T01:23:05;20.90;64.40
75161;DHT22;67232;50.096;8.716;2023-07-31T01:28:27;21.00;64.60
75161;DHT22;67232;50.096;8.716;2023-07-31T01:30:55;21.00;64.30
75161;DHT22;67232;50.096;8.716;2023-07-31T01:33:23;21.00;64.80
75161;DHT22;67232;50.096;8.716;2023-07-31T01:35:52;20.90;64.50
75161;DHT22;67232;50.096;8.716;2023-07-31T01:38:21;21.10;64.30
75161;DHT22;67232;50.096;8.716;2023-07-31T01:40:51;21.10;64.10
75161;DHT22;67232;50.096;8.716;2023-07-31T01:43:17;21.10;63.90
75161;DHT22;67232;50.096;8.716;2023-07-31T01:45:43;21.00;64.40
75161;DHT22;67232;50.096;8.716;2023-07-31T01:48:08;21.00;64.00
75161;DHT22;67232;50.096;8.716;2023-07-31T01:50:34;21.10;63.80
75161;DHT22;67232;50.096;8.716;2023-07-31T01:52:59;21.10;63.70
75161;DHT22;67232;50.096;8.716;2023-07-31T01:55:27;21.10;63.80
75161;DHT22;67232;50.096;8.716;2023-07-31T01:57:55;21.10;63.70
75161;DHT22;67232;50.096;8.716;2023-07-31T02:00:20;21.20;63.70
75161;DHT22;67232;50.096;8.716;2023-07-31T02:02:46;21.10;63.70
75161;DHT22;67232;50.096;8.716;2023-07-31T02:05:11;21.10;63.80
75161;DHT22;67232;50.096;8.716;2023-07-31T02:07:37;21.10;63.60
75161;DHT22;67232;50.096;8.716;2023-07-31T02:10:02;21.10;63.80
75161;DHT22;67232;50.096;8.716;2023-07-31T02:12:28;21.10;63.40
75161;DHT22;67232;50.096;8.716;2023-07-31T02:14:58;21.20;63.50
75161;DHT22;67232;50.096;8.716;2023-07-31T02:17:24;21.20;63.70
75161;DHT22;67232;50.096;8.716;2023-07-31T02:19:49;21.20;63.60
75161;DHT22;67232;50.096;8.716;2023-07-31T02:22:17;21.20;63.50
75161;DHT22;67232;50.096;8.716;2023-07-31T02:24:45;21.20;63.40
75161;DHT22;67232;50.096;8.716;2023-07-31T02:27:13;21.30;63.40
75161;DHT22;67232;50.096;8.716;2023-07-31T02:29:39;21.20;63.30
75161;DHT22;67232;50.096;8.716;2023-07-31T02:32:04;21.20;63.30
75161;DHT22;67232;50.096;8.716;2023-07-31T02:34:32;21.20;63.40
75161;DHT22;67232;50.096;8.716;2023-07-31T02:36:58;21.20;63.50
75161;DHT22;67232;50.096;8.716;2023-07-31T02:39:26;21.20;63.20
75161;DHT22;67232;50.096;8.716;2023-07-31T02:41:51;21.20;63.40
75161;DHT22;67232;50.096;8.716;2023-07-31T02:44:17;21.10;63.60
75161;DHT22;67232;50.096;8.716;2023-07-31T02:46:46;21.10;63.80
75161;DHT22;67232;50.096;8.716;2023-07-31T02:49:11;21.10;63.60
75161;DHT22;67232;50.096;8.716;2023-07-31T02:51:37;21.00;63.90
75161;DHT22;67232;50.096;8.716;2023-07-31T02:54:02;21.00;63.90
75161;DHT22;67232;50.096;8.716;2023-07-31T02:56:28;21.00;64.10
75161;DHT22;67232;50.096;8.716;2023-07-31T02:58:53;21.10;63.60
75161;DHT22;67232;50.096;8.716;2023-07-31T03:01:19;21.10;64.00
75161;DHT22;67232;50.096;8.716;2023-07-31T03:03:44;21.20;63.70
75161;DHT22;67232;50.096;8.716;2023-07-31T03:06:10;21.00;64.00
75161;DHT22;67232;50.096;8.716;2023-07-31T03:08:35;21.10;64.10
75161;DHT22;67232;50.096;8.716;2023-07-31T03:11:03;21.00;64.20
75161;DHT22;67232;50.096;8.716;2023-07-31T03:13:29;21.00;64.20
75161;DHT22;67232;50.096;8.716;2023-07-31T03:15:54;21.10;64.50
75161;DHT22;67232;50.096;8.716;2023-07-31T03:18:20;21.10;64.40
75161;DHT22;67232;50.096;8.716;2023-07-31T03:20:48;21.20;64.60
75161;DHT22;67232;50.096;8.716;2023-07-31T03:23:13;21.20;64.90
75161;DHT22;67232;50.096;8.716;2023-07-31T03:25:42;21.10;65.30
75161;DHT22;67232;50.096;8.716;2023-07-31T03:28:20;21.00;65.60
75161;DHT22;67232;50.096;8.716;2023-07-31T03:30:48;21.00;65.50
75161;DHT22;67232;50.096;8.716;2023-07-31T03:33:13;20.90;66.30
75161;DHT22;67232;50.096;8.716;2023-07-31T03:35:39;20.80;66.90
75161;DHT22;67232;50.096;8.716;2023-07-31T03:38:04;20.80;67.10
75161;DHT22;67232;50.096;8.716;2023-07-31T03:40:30;20.90;66.30
75161;DHT22;67232;50.096;8.716;2023-07-31T03:42:55;20.70;67.60
75161;DHT22;67232;50.096;8.716;2023-07-31T03:45:25;20.60;67.90
75161;DHT22;67232;50.096;8.716;2023-07-31T03:47:53;20.70;67.90
75161;DHT22;67232;50.096;8.716;2023-07-31T03:50:20;20.60;68.10
75161;DHT22;67232;50.096;8.716;2023-07-31T03:52:45;20.60;68.10
75161;DHT22;67232;50.096;8.716;2023-07-31T03:55:11;20.70;68.00
75161;DHT22;67232;50.096;8.716;2023-07-31T03:57:36;20.70;67.80
75161;DHT22;67232;50.096;8.716;2023-07-31T04:00:02;20.70;67.90
75161;DHT22;67232;50.096;8.716;2023-07-31T04:02:28;20.60;68.10
75161;DHT22;67232;50.096;8.716;2023-07-31T04:04:53;20.60;68.40
75161;DHT22;67232;50.096;8.716;2023-07-31T04:07:19;20.70;68.20
75161;DHT22;67232;50.096;8.716;2023-07-31T04:09:44;20.70;68.10
75161;DHT22;67232;50.096;8.716;2023-07-31T04:12:15;20.60;68.30
75161;DHT22;67232;50.096;8.716;2023-07-31T04:14:40;20.70;68.20
75161;DHT22;67232;50.096;8.716;2023-07-31T04:17:06;20.60;68.10
75161;DHT22;67232;50.096;8.716;2023-07-31T04:19:31;20.70;68.10
75161;DHT22;67232;50.096;8.716;2023-07-31T04:21:57;20.80;67.80
75161;DHT22;67232;50.096;8.716;2023-07-31T04:24:22;20.80;67.00
75161;DHT22;67232;50.096;8.716;2023-07-31T04:26:52;20.80;67.70
75161;DHT22;67232;50.096;8.716;2023-07-31T04:29:17;20.70;67.90
75161;DHT22;67232;50.096;8.716;2023-07-31T04:31:46;20.70;67.80
75161;DHT22;67232;50.096;8.716;2023-07-31T04:34:11;20.60;68.10
75161;DHT22;67232;50.096;8.716;2023-07-31T04:36:40;20.60;68.10
75161;DHT22;67232;50.096;8.716;2023-07-31T04:39:07;20.60;68.00
75161;DHT22;67232;50.096;8.716;2023-07-31T04:41:33;20.60;68.20
75161;DHT22;67232;50.096;8.716;2023-07-31T04:43:58;20.60;68.30
75161;DHT22;67232;50.096;8.716;2023-07-31T04:46:24;20.60;68.50
75161;DHT22;67232;50.096;8.716;2023-07-31T04:48:50;20.60;68.20
75161;DHT22;67232;50.096;8.716;2023-07-31T04:51:18;20.50;68.50
75161;DHT22;67232;50.096;8.716;2023-07-31T04:53:43;20.50;68.40
75161;DHT22;67232;50.096;8.716;2023-07-31T04:56:09;20.60;68.10
75161;DHT22;67232;50.096;8.716;2023-07-31T04:58:34;20.60;68.30
75161;DHT22;67232;50.096;8.716;2023-07-31T05:01:00;20.70;68.00
75161;DHT22;67232;50.096;8.716;2023-07-31T05:03:27;20.70;67.90
75161;DHT22;67232;50.096;8.716;2023-07-31T05:05:53;20.60;68.30
75161;DHT22;67232;50.096;8.716;2023-07-31T05:08:18;20.60;67.90
75161;DHT22;67232;50.096;8.716;2023-07-31T05:10:44;20.70;67.70
75161;DHT22;67232;50.096;8.716;2023-07-31T05:13:09;20.60;68.10
75161;DHT22;67232;50.096;8.716;2023-07-31T05:15:35;20.70;68.60
75161;DHT22;67232;50.096;8.716;2023-07-31T05:18:00;20.70;68.10
75161;DHT22;67232;50.096;8.716;2023-07-31T05:20:28;20.70;68.20
75161;DHT22;67232;50.096;8.716;2023-07-31T05:22:56;20.80;68.10
75161;DHT22;67232;50.096;8.716;2023-07-31T05:25:21;20.70;68.60
75161;DHT22;67232;50.096;8.716;2023-07-31T05:27:47;20.80;68.50
75161;DHT22;67232;50.096;8.716;2023-07-31T05:30:13;20.70;68.50
75161;DHT22;67232;50.096;8.716;2023-07-31T05:32:38;20.70;68.80
75161;DHT22;67232;50.096;8.716;2023-07-31T05:35:06;20.80;68.60
75161;DHT22;67232;50.096;8.716;2023-07-31T05:37:35;20.80;68.50
75161;DHT22;67232;50.096;8.716;2023-07-31T05:40:00;20.80;67.80
75161;DHT22;67232;50.096;8.716;2023-07-31T05:42:26;20.80;68.00
75161;DHT22;67232;50.096;8.716;2023-07-31T05:44:51;20.70;67.90
75161;DHT22;67232;50.096;8.716;2023-07-31T05:47:19;20.70;68.30
75161;DHT22;67232;50.096;8.716;2023-07-31T05:49:48;20.60;68.80
75161;DHT22;67232;50.096;8.716;2023-07-31T05:52:14;20.60;69.30
75161;DHT22;67232;50.096;8.716;2023-07-31T05:54:40;20.70;68.90
75161;DHT22;67232;50.096;8.716;2023-07-31T05:57:06;20.60;69.00
75161;DHT22;67232;50.096;8.716;2023-07-31T05:59:33;20.70;68.90
75161;DHT22;67232;50.096;8.716;2023-07-31T06:01:59;20.70;68.90
75161;DHT22;67232;50.096;8.716;2023-07-31T06:04:25;20.70;68.50
75161;DHT22;67232;50.096;8.716;2023-07-31T06:06:51;20.80;68.50
75161;DHT22;67232;50.096;8.716;2023-07-31T06:09:16;20.70;69.10
75161;DHT22;67232;50.096;8.716;2023-07-31T06:11:42;20.70;69.20
75161;DHT22;67232;50.096;8.716;2023-07-31T06:14:07;20.90;67.70
75161;DHT22;67232;50.096;8.716;2023-07-31T06:16:33;21.00;66.70
75161;DHT22;67232;50.096;8.716;2023-07-31T06:18:58;21.10;66.60
75161;DHT22;67232;50.096;8.716;2023-07-31T06:21:27;21.10;66.50
75161;DHT22;67232;50.096;8.716;2023-07-31T06:23:52;21.10;66.60
75161;DHT22;67232;50.096;8.716;2023-07-31T06:26:18;21.00;66.10
75161;DHT22;67232;50.096;8.716;2023-07-31T06:28:46;21.00;66.70
75161;DHT22;67232;50.096;8.716;2023-07-31T06:31:11;21.00;66.70
75161;DHT22;67232;50.096;8.716;2023-07-31T06:33:37;21.10;66.60
75161;DHT22;67232;50.096;8.716;2023-07-31T06:36:02;21.10;66.60
75161;DHT22;67232;50.096;8.716;2023-07-31T06:38:28;21.10;66.90
75161;DHT22;67232;50.096;8.716;2023-07-31T06:40:54;21.10;66.80
75161;DHT22;67232;50.096;8.716;2023-07-31T06:43:19;21.20;67.20
75161;DHT22;67232;50.096;8.716;2023-07-31T06:45:45;21.30;66.80
75161;DHT22;67232;50.096;8.716;2023-07-31T06:48:15;21.40;66.20
75161;DHT22;67232;50.096;8.716;2023-07-31T06:50:40;21.40;65.80
75161;DHT22;67232;50.096;8.716;2023-07-31T06:53:11;21.40;65.70
75161;DHT22;67232;50.096;8.716;2023-07-31T06:55:37;21.50;66.40
75161;DHT22;67232;50.096;8.716;2023-07-31T06:58:02;21.50;65.80
75161;DHT22;67232;50.096;8.716;2023-07-31T07:00:30;21.50;66.40
75161;DHT22;67232;50.096;8.716;2023-07-31T07:02:56;21.60;66.20
75161;DHT22;67232;50.096;8.716;2023-07-31T07:05:26;21.60;65.90
75161;DHT22;67232;50.096;8.716;2023-07-31T07:07:52;21.50;65.90
75161;DHT22;67232;50.096;8.716;2023-07-31T07:10:17;21.50;66.00
75161;DHT22;67232;50.096;8.716;2023-07-31T07:12:43;21.50;66.10
75161;DHT22;67232;50.096;8.716;2023-07-31T07:15:09;21.60;66.40
75161;DHT22;67232;50.096;8.716;2023-07-31T07:17:35;21.60;66.50
75161;DHT22;67232;50.096;8.716;2023-07-31T07:20:03;21.60;66.50
75161;DHT22;67232;50.096;8.716;2023-07-31T07:22:29;21.50;66.30
75161;DHT22;67232;50.096;8.716;2023-07-31T07:24:57;21.60;66.60
75161;DHT22;67232;50.096;8.716;2023-07-31T07:27:22;21.60;66.60
75161;DHT22;67232;50.096;8.716;2023-07-31T07:29:50;21.70;66.70
75161;DHT22;67232;50.096;8.716;2023-07-31T07:32:17;21.70;66.20
75161;DHT22;67232;50.096;8.716;2023-07-31T07:34:46;21.80;66.10
75161;DHT22;67232;50.096;8.716;2023-07-31T07:37:12;22.10;65.60
75161;DHT22;67232;50.096;8.716;2023-07-31T07:39:38;22.10;64.90
75161;DHT22;67232;50.096;8.716;2023-07-31T07:42:06;22.30;65.00
75161;DHT22;67232;50.096;8.716;2023-07-31T07:44:33;22.30;64.70
75161;DHT22;67232;50.096;8.716;2023-07-31T07:46:59;22.20;65.10
75161;DHT22;67232;50.096;8.716;2023-07-31T07:49:25;22.20;65.30
75161;DHT22;67232;50.096;8.716;2023-07-31T07:51:50;22.20;65.30
75161;DHT22;67232;50.096;8.716;2023-07-31T07:54:18;22.20;65.50
75161;DHT22;67232;50.096;8.716;2023-07-31T07:56:47;22.30;65.70
75161;DHT22;67232;50.096;8.716;2023-07-31T07:59:13;22.30;65.80
75161;DHT22;67232;50.096;8.716;2023-07-31T08:01:39;22.40;65.80
75161;DHT22;67232;50.096;8.716;2023-07-31T08:04:04;22.30;65.40
75161;DHT22;67232;50.096;8.716;2023-07-31T08:06:34;22.50;65.70
75161;DHT22;67232;50.096;8.716;2023-07-31T08:09:00;22.60;65.40
75161;DHT22;67232;50.096;8.716;2023-07-31T08:11:30;22.60;65.70
75161;DHT22;67232;50.096;8.716;2023-07-31T08:13:56;22.60;65.50
75161;DHT22;67232;50.096;8.716;2023-07-31T08:16:21;22.70;65.50
75161;DHT22;67232;50.096;8.716;2023-07-31T08:18:47;22.70;65.40
75161;DHT22;67232;50.096;8.716;2023-07-31T08:21:14;22.70;65.20
75161;DHT22;67232;50.096;8.716;2023-07-31T08:23:41;22.60;65.20
75161;DHT22;67232;50.096;8.716;2023-07-31T08:26:07;22.40;65.80
75161;DHT22;67232;50.096;8.716;2023-07-31T08:28:32;22.40;65.60
75161;DHT22;67232;50.096;8.716;2023-07-31T08:31:00;22.40;66.10
75161;DHT22;67232;50.096;8.716;2023-07-31T08:33:28;22.30;66.10
75161;DHT22;67232;50.096;8.716;2023-07-31T08:35:54;22.30;66.10
75161;DHT22;67232;50.096;8.716;2023-07-31T08:38:21;22.40;66.10
75161;DHT22;67232;50.096;8.716;2023-07-31T08:40:51;22.60;66.00
75161;DHT22;67232;50.096;8.716;2023-07-31T08:43:16;22.60;66.80
75161;DHT22;67232;50.096;8.716;2023-07-31T08:45:44;22.80;65.40
75161;DHT22;67232;50.096;8.716;2023-07-31T08:48:11;22.80;65.40
75161;DHT22;67232;50.096;8.716;2023-07-31T08:50:37;22.80;65.70
75161;DHT22;67232;50.096;8.716;2023-07-31T08:53:05;22.90;65.00
75161;DHT22;67232;50.096;8.716;2023-07-31T08:55:33;23.00;65.50
75161;DHT22;67232;50.096;8.716;2023-07-31T08:58:00;23.10;65.30
75161;DHT22;67232;50.096;8.716;2023-07-31T09:00:27;23.00;64.60
75161;DHT22;67232;50.096;8.716;2023-07-31T09:03:06;23.10;65.40
75161;DHT22;67232;50.096;8.716;2023-07-31T09:05:33;23.00;64.30
75161;DHT22;67232;50.096;8.716;2023-07-31T09:08:00;22.90;65.20
75161;DHT22;67232;50.096;8.716;2023-07-31T09:10:29;23.00;65.30
75161;DHT22;67232;50.096;8.716;2023-07-31T09:13:01;22.90;65.30
75161;DHT22;67232;50.096;8.716;2023-07-31T09:15:30;23.00;65.20
75161;DHT22;67232;50.096;8.716;2023-07-31T09:18:02;23.10;64.70
75161;DHT22;67232;50.096;8.716;2023-07-31T09:20:27;23.20;64.40
75161;DHT22;67232;50.096;8.716;2023-07-31T09:22:55;23.20;64.40
75161;DHT22;67232;50.096;8.716;2023-07-31T09:25:24;23.30;65.20
75161;DHT22;67232;50.096;8.716;2023-07-31T09:27:57;23.50;65.00
75161;DHT22;67232;50.096;8.716;2023-07-31T09:30:25;23.60;64.20
75161;DHT22;67232;50.096;8.716;2023-07-31T09:32:52;23.60;63.80
75161;DHT22;67232;50.096;8.716;2023-07-31T09:35:32;23.60;64.40
75161;DHT22;67232;50.096;8.716;2023-07-31T09:38:10;23.60;64.30
75161;DHT22;67232;50.096;8.716;2023-07-31T09:40:42;23.70;64.50
75161;DHT22;67232;50.096;8.716;2023-07-31T09:43:21;23.80;64.20
75161;DHT22;67232;50.096;8.716;2023-07-31T09:45:57;23.90;63.70
75161;DHT22;67232;50.096;8.716;2023-07-31T09:48:24;23.80;62.90
75161;DHT22;67232;50.096;8.716;2023-07-31T09:50:54;23.80;63.40
75161;DHT22;67232;50.096;8.716;2023-07-31T09:53:28;23.80;63.60
75161;DHT22;67232;50.096;8.716;2023-07-31T09:55:54;23.80;63.90
75161;DHT22;67232;50.096;8.716;2023-07-31T09:58:20;23.80;64.70
75161;DHT22;67232;50.096;8.716;2023-07-31T10:00:46;23.80;63.70
75161;DHT22;67232;50.096;8.716;2023-07-31T10:03:11;23.90;63.30
75161;DHT22;67232;50.096;8.716;2023-07-31T10:05:46;24.00;63.70
75161;DHT22;67232;50.096;8.716;2023-07-31T10:08:15;24.10;62.30
75161;DHT22;67232;50.096;8.716;2023-07-31T10:10:42;24.20;61.30
75161;DHT22;67232;50.096;8.716;2023-07-31T10:13:09;24.20;61.00
75161;DHT22;67232;50.096;8.716;2023-07-31T10:15:38;24.20;61.30
75161;DHT22;67232;50.096;8.716;2023-07-31T10:18:08;24.20;59.90
75161;DHT22;67232;50.096;8.716;2023-07-31T10:20:34;24.30;60.20
75161;DHT22;67232;50.096;8.716;2023-07-31T10:23:00;24.40;60.30
75161;DHT22;67232;50.096;8.716;2023-07-31T10:25:26;24.50;60.50
75161;DHT22;67232;50.096;8.716;2023-07-31T10:27:57;24.60;59.70
75161;DHT22;67232;50.096;8.716;2023-07-31T10:30:27;24.70;59.50
75161;DHT22;67232;50.096;8.716;2023-07-31T10:32:57;24.60;59.60
75161;DHT22;67232;50.096;8.716;2023-07-31T10:35:23;24.60;59.40
75161;DHT22;67232;50.096;8.716;2023-07-31T10:37:52;24.40;59.30
75161;DHT22;67232;50.096;8.716;2023-07-31T10:40:25;24.40;59.90
75161;DHT22;67232;50.096;8.716;2023-07-31T10:42:54;24.20;59.50
75161;DHT22;67232;50.096;8.716;2023-07-31T10:45:40;24.10;59.60
75161;DHT22;67232;50.096;8.716;2023-07-31T10:48:13;24.10;60.40
75161;DHT22;67232;50.096;8.716;2023-07-31T10:50:55;24.20;59.90
75161;DHT22;67232;50.096;8.716;2023-07-31T10:53:29;24.20;59.80
75161;DHT22;67232;50.096;8.716;2023-07-31T10:56:03;24.30;60.50
75161;DHT22;67232;50.096;8.716;2023-07-31T10:58:30;24.30;60.50
75161;DHT22;67232;50.096;8.716;2023-07-31T11:01:01;24.20;60.50
75161;DHT22;67232;50.096;8.716;2023-07-31T11:04:00;24.30;59.80
75161;DHT22;67232;50.096;8.716;2023-07-31T11:06:36;24.40;59.00
75161;DHT22;67232;50.096;8.716;2023-07-31T11:09:02;24.60;59.10
75161;DHT22;67232;50.096;8.716;2023-07-31T11:11:31;24.70;59.00
75161;DHT22;67232;50.096;8.716;2023-07-31T11:13:58;24.70;58.80
75161;DHT22;67232;50.096;8.716;2023-07-31T11:16:24;24.60;58.50
75161;DHT22;67232;50.096;8.716;2023-07-31T11:18:51;24.50;59.30
75161;DHT22;67232;50.096;8.716;2023-07-31T11:21:23;24.50;58.90
75161;DHT22;67232;50.096;8.716;2023-07-31T11:23:51;24.30;58.80
75161;DHT22;67232;50.096;8.716;2023-07-31T11:26:17;24.30;59.40
75161;DHT22;67232;50.096;8.716;2023-07-31T11:28:46;24.40;59.00
75161;DHT22;67232;50.096;8.716;2023-07-31T11:31:11;24.40;59.00
75161;DHT22;67232;50.096;8.716;2023-07-31T11:33:37;24.30;58.60
75161;DHT22;67232;50.096;8.716;2023-07-31T11:36:05;24.20;59.20
75161;DHT22;67232;50.096;8.716;2023-07-31T11:38:32;24.20;59.70
75161;DHT22;67232;50.096;8.716;2023-07-31T11:40:59;24.20;59.50
75161;DHT22;67232;50.096;8.716;2023-07-31T11:43:25;24.30;59.30
75161;DHT22;67232;50.096;8.716;2023-07-31T11:45:56;24.30;59.20
75161;DHT22;67232;50.096;8.716;2023-07-31T11:48:31;24.20;59.90
75161;DHT22;67232;50.096;8.716;2023-07-31T11:51:03;24.20;60.00
75161;DHT22;67232;50.096;8.716;2023-07-31T11:53:38;24.10;60.10
75161;DHT22;67232;50.096;8.716;2023-07-31T11:56:07;24.10;59.80
75161;DHT22;67232;50.096;8.716;2023-07-31T11:58:34;24.20;60.00
75161;DHT22;67232;50.096;8.716;2023-07-31T12:01:03;24.10;59.80
75161;DHT22;67232;50.096;8.716;2023-07-31T12:03:29;24.20;59.90
75161;DHT22;67232;50.096;8.716;2023-07-31T12:05:55;24.40;59.20
75161;DHT22;67232;50.096;8.716;2023-07-31T12:08:23;24.50;59.40
75161;DHT22;67232;50.096;8.716;2023-07-31T12:10:51;24.50;59.00
75161;DHT22;67232;50.096;8.716;2023-07-31T12:13:23;24.60;59.20
75161;DHT22;67232;50.096;8.716;2023-07-31T12:15:53;24.70;59.10
75161;DHT22;67232;50.096;8.716;2023-07-31T12:18:21;24.70;59.10
75161;DHT22;67232;50.096;8.716;2023-07-31T12:20:58;24.70;58.60
75161;DHT22;67232;50.096;8.716;2023-07-31T12:23:26;24.50;58.60
75161;DHT22;67232;50.096;8.716;2023-07-31T12:26:07;24.50;59.30
75161;DHT22;67232;50.096;8.716;2023-07-31T12:31:04;24.50;59.10
75161;DHT22;67232;50.096;8.716;2023-07-31T12:33:38;24.60;58.60
75161;DHT22;67232;50.096;8.716;2023-07-31T12:36:17;24.50;58.70
75161;DHT22;67232;50.096;8.716;2023-07-31T12:38:44;24.30;59.10
75161;DHT22;67232;50.096;8.716;2023-07-31T12:41:10;24.40;59.10
75161;DHT22;67232;50.096;8.716;2023-07-31T12:43:36;24.30;59.60
75161;DHT22;67232;50.096;8.716;2023-07-31T12:46:02;24.30;59.50
75161;DHT22;67232;50.096;8.716;2023-07-31T12:48:28;24.20;59.50
75161;DHT22;67232;50.096;8.716;2023-07-31T12:50:56;24.10;60.10
75161;DHT22;67232;50.096;8.716;2023-07-31T12:53:22;24.10;59.90
75161;DHT22;67232;50.096;8.716;2023-07-31T12:55:50;24.20;60.00
75161;DHT22;67232;50.096;8.716;2023-07-31T12:58:15;24.20;59.90
75161;DHT22;67232;50.096;8.716;2023-07-31T13:00:41;24.30;60.20
75161;DHT22;67232;50.096;8.716;2023-07-31T13:03:07;24.60;60.00
75161;DHT22;67232;50.096;8.716;2023-07-31T13:05:40;24.90;59.40
75161;DHT22;67232;50.096;8.716;2023-07-31T13:08:11;25.50;58.70
75161;DHT22;67232;50.096;8.716;2023-07-31T13:10:37;25.70;58.10
75161;DHT22;67232;50.096;8.716;2023-07-31T13:13:05;25.80;58.10
75161;DHT22;67232;50.096;8.716;2023-07-31T13:15:30;25.90;57.70
75161;DHT22;67232;50.096;8.716;2023-07-31T13:17:58;25.90;57.90
75161;DHT22;67232;50.096;8.716;2023-07-31T13:20:24;25.90;57.80
75161;DHT22;67232;50.096;8.716;2023-07-31T13:22:55;25.80;57.40
75161;DHT22;67232;50.096;8.716;2023-07-31T13:25:20;25.80;57.60
75161;DHT22;67232;50.096;8.716;2023-07-31T13:27:46;25.80;57.50
75161;DHT22;67232;50.096;8.716;2023-07-31T13:30:11;25.80;57.70
75161;DHT22;67232;50.096;8.716;2023-07-31T13:32:37;25.70;57.50
75161;DHT22;67232;50.096;8.716;2023-07-31T13:35:07;25.60;57.70
75161;DHT22;67232;50.096;8.716;2023-07-31T13:37:33;25.50;57.60
75161;DHT22;67232;50.096;8.716;2023-07-31T13:39:59;25.40;58.30
75161;DHT22;67232;50.096;8.716;2023-07-31T13:42:30;25.40;58.50
75161;DHT22;67232;50.096;8.716;2023-07-31T13:44:58;25.40;58.00
75161;DHT22;67232;50.096;8.716;2023-07-31T13:47:26;25.40;58.00
75161;DHT22;67232;50.096;8.716;2023-07-31T13:49:51;25.40;57.80
75161;DHT22;67232;50.096;8.716;2023-07-31T13:52:17;25.30;58.10
75161;DHT22;67232;50.096;8.716;2023-07-31T13:54:42;25.20;58.60
75161;DHT22;67232;50.096;8.716;2023-07-31T13:57:10;25.10;59.30
75161;DHT22;67232;50.096;8.716;2023-07-31T13:59:38;25.10;58.80
75161;DHT22;67232;50.096;8.716;2023-07-31T14:02:05;25.10;59.20
75161;DHT22;67232;50.096;8.716;2023-07-31T14:04:31;25.10;59.30
75161;DHT22;67232;50.096;8.716;2023-07-31T14:06:59;25.00;58.80
75161;DHT22;67232;50.096;8.716;2023-07-31T14:09:24;25.00;59.00
75161;DHT22;67232;50.096;8.716;2023-07-31T14:11:50;24.90;58.70
75161;DHT22;67232;50.096;8.716;2023-07-31T14:14:18;24.90;59.10
75161;DHT22;67232;50.096;8.716;2023-07-31T14:16:44;24.80;59.10
75161;DHT22;67232;50.096;8.716;2023-07-31T14:19:10;24.60;59.30
75161;DHT22;67232;50.096;8.716;2023-07-31T14:21:36;24.60;60.20
75161;DHT22;67232;50.096;8.716;2023-07-31T14:24:01;24.50;60.40
75161;DHT22;67232;50.096;8.716;2023-07-31T14:26:29;24.60;60.10
75161;DHT22;67232;50.096;8.716;2023-07-31T14:28:55;24.40;59.80
75161;DHT22;67232;50.096;8.716;2023-07-31T14:31:20;24.30;60.20
75161;DHT22;67232;50.096;8.716;2023-07-31T14:33:46;24.30;59.90
75161;DHT22;67232;50.096;8.716;2023-07-31T14:36:11;24.30;60.00
75161;DHT22;67232;50.096;8.716;2023-07-31T14:38:37;24.20;60.20
75161;DHT22;67232;50.096;8.716;2023-07-31T14:41:05;24.20;60.10
75161;DHT22;67232;50.096;8.716;2023-07-31T14:43:33;24.20;60.30
75161;DHT22;67232;50.096;8.716;2023-07-31T14:45:58;24.20;60.50
75161;DHT22;67232;50.096;8.716;2023-07-31T14:48:27;24.10;60.50
75161;DHT22;67232;50.096;8.716;2023-07-31T14:50:54;24.20;60.80
75161;DHT22;67232;50.096;8.716;2023-07-31T14:53:21;24.20;60.90
75161;DHT22;67232;50.096;8.716;2023-07-31T14:55:49;24.20;60.90
75161;DHT22;67232;50.096;8.716;2023-07-31T14:58:15;24.20;60.10
75161;DHT22;67232;50.096;8.716;2023-07-31T15:00:48;24.20;60.70
75161;DHT22;67232;50.096;8.716;2023-07-31T15:03:18;24.20;60.90
75161;DHT22;67232;50.096;8.716;2023-07-31T15:05:43;24.10;60.90
75161;DHT22;67232;50.096;8.716;2023-07-31T15:08:09;24.10;61.00
75161;DHT22;67232;50.096;8.716;2023-07-31T15:10:34;24.20;60.80
75161;DHT22;67232;50.096;8.716;2023-07-31T15:13:02;24.20;60.80
75161;DHT22;67232;50.096;8.716;2023-07-31T15:15:32;24.10;61.10
75161;DHT22;67232;50.096;8.716;2023-07-31T15:17:58;24.00;61.10
75161;DHT22;67232;50.096;8.716;2023-07-31T15:20:23;23.90;61.60
75161;DHT22;67232;50.096;8.716;2023-07-31T15:22:49;23.90;62.10
75161;DHT22;67232;50.096;8.716;2023-07-31T15:25:15;23.90;60.90
75161;DHT22;67232;50.096;8.716;2023-07-31T15:27:40;23.90;61.10
75161;DHT22;67232;50.096;8.716;2023-07-31T15:30:08;23.80;61.10
75161;DHT22;67232;50.096;8.716;2023-07-31T15:32:37;23.80;60.80
75161;DHT22;67232;50.096;8.716;2023-07-31T15:35:03;23.80;61.20
75161;DHT22;67232;50.096;8.716;2023-07-31T15:37:28;23.70;61.40
75161;DHT22;67232;50.096;8.716;2023-07-31T15:39:56;23.70;61.40